Altus, Arkansas
Current Conditions -  °F | °C
As of 10:17 AM on Saturday 25 Oct 2014 (Local Time) from KFSM Reporting Station
Clear Clear  
Wind Chill: 63°   Ceiling: Unl
Heat Index: 63°   Visibility: 3mi
Dew Point: 60°   Wind: 5mph
Humidity: 90%   Direction: 30°NNE
Pressure: 30.12"   Gusts: NA
Location:  35.45°N, 93.76°W
Report Text: KFSM 251517Z 03004KT 3SM CLR 17/16 A3012 RMK AO2 T01720156
Loading
Personal Weather Stations






























Interactive Weather Map
Tropical Storm Tracking
New forecast layout! Learn more

10-Day Weather Forecast

Advertisements
Track Severe Weather on mobile